sensor_id;sensor_type;location;lat;lon;timestamp;P1;durP1;ratioP1;P2;durP2;ratioP2
18140;SDS011;9196;49.194;12.526;2022-07-17T00:00:16;3.53;;;3.23;;
18140;SDS011;9196;49.194;12.526;2022-07-17T00:02:43;3.73;;;3.30;;
18140;SDS011;9196;49.194;12.526;2022-07-17T00:05:10;3.70;;;3.40;;
18140;SDS011;9196;49.194;12.526;2022-07-17T00:07:38;5.20;;;3.33;;
18140;SDS011;9196;49.194;12.526;2022-07-17T00:10:05;3.40;;;3.20;;
18140;SDS011;9196;49.194;12.526;2022-07-17T00:12:33;3.27;;;3.00;;
18140;SDS011;9196;49.194;12.526;2022-07-17T00:15:00;2.93;;;2.73;;
18140;SDS011;9196;49.194;12.526;2022-07-17T00:17:26;4.00;;;3.70;;
18140;SDS011;9196;49.194;12.526;2022-07-17T00:19:54;3.30;;;3.10;;
18140;SDS011;9196;49.194;12.526;2022-07-17T00:22:21;3.93;;;2.90;;
18140;SDS011;9196;49.194;12.526;2022-07-17T00:24:49;3.10;;;2.90;;
18140;SDS011;9196;49.194;12.526;2022-07-17T00:27:15;3.90;;;3.57;;
18140;SDS011;9196;49.194;12.526;2022-07-17T00:29:42;3.30;;;3.10;;
18140;SDS011;9196;49.194;12.526;2022-07-17T00:32:09;3.27;;;2.87;;
18140;SDS011;9196;49.194;12.526;2022-07-17T00:34:35;2.80;;;2.60;;
18140;SDS011;9196;49.194;12.526;2022-07-17T00:37:02;8.43;;;2.37;;
18140;SDS011;9196;49.194;12.526;2022-07-17T00:39:29;3.47;;;3.17;;
18140;SDS011;9196;49.194;12.526;2022-07-17T00:41:57;6.07;;;3.07;;
18140;SDS011;9196;49.194;12.526;2022-07-17T00:44:25;3.17;;;2.97;;
18140;SDS011;9196;49.194;12.526;2022-07-17T00:46:53;3.10;;;2.93;;
18140;SDS011;9196;49.194;12.526;2022-07-17T00:49:20;3.00;;;2.80;;
18140;SDS011;9196;49.194;12.526;2022-07-17T00:51:46;2.80;;;2.70;;
18140;SDS011;9196;49.194;12.526;2022-07-17T00:54:13;3.60;;;3.27;;
18140;SDS011;9196;49.194;12.526;2022-07-17T00:56:41;3.57;;;3.27;;
18140;SDS011;9196;49.194;12.526;2022-07-17T00:59:12;4.07;;;3.17;;
18140;SDS011;9196;49.194;12.526;2022-07-17T01:01:41;3.60;;;3.30;;
18140;SDS011;9196;49.194;12.526;2022-07-17T01:04:08;2.80;;;2.60;;
18140;SDS011;9196;49.194;12.526;2022-07-17T01:06:35;3.30;;;3.10;;
18140;SDS011;9196;49.194;12.526;2022-07-17T01:09:02;3.60;;;3.30;;
18140;SDS011;9196;49.194;12.526;2022-07-17T01:11:28;3.40;;;3.20;;
18140;SDS011;9196;49.194;12.526;2022-07-17T01:13:56;3.20;;;3.00;;
18140;SDS011;9196;49.194;12.526;2022-07-17T01:16:24;6.27;;;3.60;;
18140;SDS011;9196;49.194;12.526;2022-07-17T01:18:51;5.80;;;3.50;;
18140;SDS011;9196;49.194;12.526;2022-07-17T01:21:20;3.20;;;3.00;;
18140;SDS011;9196;49.194;12.526;2022-07-17T01:23:47;4.53;;;3.50;;
18140;SDS011;9196;49.194;12.526;2022-07-17T01:26:14;6.20;;;3.60;;
18140;SDS011;9196;49.194;12.526;2022-07-17T01:28:40;4.23;;;3.50;;
18140;SDS011;9196;49.194;12.526;2022-07-17T01:31:07;3.00;;;2.90;;
18140;SDS011;9196;49.194;12.526;2022-07-17T01:33:34;5.80;;;3.90;;
18140;SDS011;9196;49.194;12.526;2022-07-17T01:36:02;5.17;;;3.30;;
18140;SDS011;9196;49.194;12.526;2022-07-17T01:38:30;4.33;;;4.03;;
18140;SDS011;9196;49.194;12.526;2022-07-17T01:40:57;4.43;;;4.03;;
18140;SDS011;9196;49.194;12.526;2022-07-17T01:43:24;3.77;;;3.53;;
18140;SDS011;9196;49.194;12.526;2022-07-17T01:45:50;4.23;;;3.70;;
18140;SDS011;9196;49.194;12.526;2022-07-17T01:48:24;4.37;;;3.97;;
18140;SDS011;9196;49.194;12.526;2022-07-17T01:50:53;4.00;;;3.70;;
18140;SDS011;9196;49.194;12.526;2022-07-17T01:53:19;3.93;;;3.17;;
18140;SDS011;9196;49.194;12.526;2022-07-17T01:55:48;3.27;;;3.03;;
18140;SDS011;9196;49.194;12.526;2022-07-17T01:58:14;3.70;;;3.50;;
18140;SDS011;9196;49.194;12.526;2022-07-17T02:00:42;3.40;;;3.13;;
18140;SDS011;9196;49.194;12.526;2022-07-17T02:03:09;3.00;;;2.80;;
18140;SDS011;9196;49.194;12.526;2022-07-17T02:05:35;4.00;;;3.70;;
18140;SDS011;9196;49.194;12.526;2022-07-17T02:08:02;3.60;;;3.40;;
18140;SDS011;9196;49.194;12.526;2022-07-17T02:10:29;8.40;;;4.37;;
18140;SDS011;9196;49.194;12.526;2022-07-17T02:12:57;3.33;;;3.13;;
18140;SDS011;9196;49.194;12.526;2022-07-17T02:15:24;3.43;;;3.23;;
18140;SDS011;9196;49.194;12.526;2022-07-17T02:17:51;4.20;;;3.80;;
18140;SDS011;9196;49.194;12.526;2022-07-17T02:20:18;3.30;;;3.00;;
18140;SDS011;9196;49.194;12.526;2022-07-17T02:22:45;4.63;;;4.00;;
18140;SDS011;9196;49.194;12.526;2022-07-17T02:25:12;3.63;;;3.43;;
18140;SDS011;9196;49.194;12.526;2022-07-17T02:27:40;4.20;;;3.60;;
18140;SDS011;9196;49.194;12.526;2022-07-17T02:30:09;4.33;;;3.93;;
18140;SDS011;9196;49.194;12.526;2022-07-17T02:32:38;4.07;;;3.77;;
18140;SDS011;9196;49.194;12.526;2022-07-17T02:35:06;3.90;;;3.60;;
18140;SDS011;9196;49.194;12.526;2022-07-17T02:37:33;4.20;;;3.90;;
18140;SDS011;9196;49.194;12.526;2022-07-17T02:40:00;7.40;;;4.00;;
18140;SDS011;9196;49.194;12.526;2022-07-17T02:42:28;4.27;;;3.93;;
18140;SDS011;9196;49.194;12.526;2022-07-17T02:44:55;4.43;;;4.13;;
18140;SDS011;9196;49.194;12.526;2022-07-17T02:47:24;3.55;;;3.35;;
18140;SDS011;9196;49.194;12.526;2022-07-17T02:49:53;5.70;;;4.07;;
18140;SDS011;9196;49.194;12.526;2022-07-17T02:52:20;4.53;;;4.13;;
18140;SDS011;9196;49.194;12.526;2022-07-17T02:54:47;6.03;;;3.90;;
18140;SDS011;9196;49.194;12.526;2022-07-17T02:57:15;4.33;;;4.03;;
18140;SDS011;9196;49.194;12.526;2022-07-17T02:59:43;5.13;;;4.67;;
18140;SDS011;9196;49.194;12.526;2022-07-17T03:02:10;5.20;;;4.70;;
18140;SDS011;9196;49.194;12.526;2022-07-17T03:04:38;5.03;;;4.63;;
18140;SDS011;9196;49.194;12.526;2022-07-17T03:07:05;4.10;;;3.80;;
18140;SDS011;9196;49.194;12.526;2022-07-17T03:09:32;3.80;;;3.50;;
18140;SDS011;9196;49.194;12.526;2022-07-17T03:11:59;3.30;;;3.10;;
18140;SDS011;9196;49.194;12.526;2022-07-17T03:14:25;3.60;;;3.30;;
18140;SDS011;9196;49.194;12.526;2022-07-17T03:16:52;2.92;;;2.72;;
18140;SDS011;9196;49.194;12.526;2022-07-17T03:19:19;3.10;;;2.90;;
18140;SDS011;9196;49.194;12.526;2022-07-17T03:21:47;3.45;;;2.60;;
18140;SDS011;9196;49.194;12.526;2022-07-17T03:24:14;3.77;;;3.47;;
18140;SDS011;9196;49.194;12.526;2022-07-17T03:26:40;3.40;;;3.20;;
18140;SDS011;9196;49.194;12.526;2022-07-17T03:29:07;3.10;;;2.90;;
18140;SDS011;9196;49.194;12.526;2022-07-17T03:31:34;4.67;;;2.80;;
18140;SDS011;9196;49.194;12.526;2022-07-17T03:34:01;4.80;;;3.78;;
18140;SDS011;9196;49.194;12.526;2022-07-17T03:36:28;3.03;;;2.75;;
18140;SDS011;9196;49.194;12.526;2022-07-17T03:38:56;2.80;;;2.70;;
18140;SDS011;9196;49.194;12.526;2022-07-17T03:41:22;5.47;;;3.47;;
18140;SDS011;9196;49.194;12.526;2022-07-17T03:43:49;7.53;;;2.90;;
18140;SDS011;9196;49.194;12.526;2022-07-17T03:46:16;6.33;;;2.63;;
18140;SDS011;9196;49.194;12.526;2022-07-17T03:48:42;2.83;;;2.47;;
18140;SDS011;9196;49.194;12.526;2022-07-17T03:51:09;4.27;;;3.87;;
18140;SDS011;9196;49.194;12.526;2022-07-17T03:53:36;7.67;;;2.93;;
18140;SDS011;9196;49.194;12.526;2022-07-17T03:56:04;3.57;;;2.20;;
18140;SDS011;9196;49.194;12.526;2022-07-17T03:58:31;8.00;;;3.45;;
18140;SDS011;9196;49.194;12.526;2022-07-17T04:00:58;6.70;;;5.27;;
18140;SDS011;9196;49.194;12.526;2022-07-17T04:03:26;3.65;;;3.35;;
18140;SDS011;9196;49.194;12.526;2022-07-17T04:05:53;3.10;;;2.60;;
18140;SDS011;9196;49.194;12.526;2022-07-17T04:08:19;4.45;;;3.70;;
18140;SDS011;9196;49.194;12.526;2022-07-17T04:10:46;5.63;;;3.67;;
18140;SDS011;9196;49.194;12.526;2022-07-17T04:13:15;3.72;;;3.45;;
18140;SDS011;9196;49.194;12.526;2022-07-17T04:15:42;2.90;;;2.70;;
18140;SDS011;9196;49.194;12.526;2022-07-17T04:18:22;3.60;;;3.40;;
18140;SDS011;9196;49.194;12.526;2022-07-17T04:20:50;3.65;;;3.45;;
18140;SDS011;9196;49.194;12.526;2022-07-17T04:23:18;6.38;;;3.83;;
18140;SDS011;9196;49.194;12.526;2022-07-17T04:25:44;4.28;;;3.80;;
18140;SDS011;9196;49.194;12.526;2022-07-17T04:28:12;3.83;;;3.58;;
18140;SDS011;9196;49.194;12.526;2022-07-17T04:30:40;3.53;;;3.33;;
18140;SDS011;9196;49.194;12.526;2022-07-17T04:33:08;4.40;;;4.10;;
18140;SDS011;9196;49.194;12.526;2022-07-17T04:35:35;4.28;;;3.70;;
18140;SDS011;9196;49.194;12.526;2022-07-17T04:38:02;4.13;;;3.83;;
18140;SDS011;9196;49.194;12.526;2022-07-17T04:40:30;4.23;;;3.93;;
18140;SDS011;9196;49.194;12.526;2022-07-17T04:42:57;4.40;;;4.03;;
18140;SDS011;9196;49.194;12.526;2022-07-17T04:45:24;5.43;;;4.03;;
18140;SDS011;9196;49.194;12.526;2022-07-17T04:47:52;3.95;;;3.60;;
18140;SDS011;9196;49.194;12.526;2022-07-17T04:50:20;4.07;;;3.87;;
18140;SDS011;9196;49.194;12.526;2022-07-17T04:52:47;3.83;;;3.33;;
18140;SDS011;9196;49.194;12.526;2022-07-17T04:55:13;4.30;;;4.00;;
18140;SDS011;9196;49.194;12.526;2022-07-17T04:57:41;5.37;;;4.87;;
18140;SDS011;9196;49.194;12.526;2022-07-17T05:00:08;6.83;;;4.53;;
18140;SDS011;9196;49.194;12.526;2022-07-17T05:02:36;4.70;;;4.30;;
18140;SDS011;9196;49.194;12.526;2022-07-17T05:05:05;3.90;;;3.70;;
18140;SDS011;9196;49.194;12.526;2022-07-17T05:07:32;5.43;;;2.87;;
18140;SDS011;9196;49.194;12.526;2022-07-17T05:09:59;3.90;;;3.60;;
18140;SDS011;9196;49.194;12.526;2022-07-17T05:12:27;4.10;;;3.33;;
18140;SDS011;9196;49.194;12.526;2022-07-17T05:14:53;10.90;;;4.03;;
18140;SDS011;9196;49.194;12.526;2022-07-17T05:17:20;3.57;;;3.30;;
18140;SDS011;9196;49.194;12.526;2022-07-17T05:19:47;4.00;;;3.47;;
18140;SDS011;9196;49.194;12.526;2022-07-17T05:22:15;6.03;;;3.90;;
18140;SDS011;9196;49.194;12.526;2022-07-17T05:24:42;4.00;;;3.70;;
18140;SDS011;9196;49.194;12.526;2022-07-17T05:27:09;6.40;;;4.20;;
18140;SDS011;9196;49.194;12.526;2022-07-17T05:29:36;5.00;;;3.60;;
18140;SDS011;9196;49.194;12.526;2022-07-17T05:32:03;6.60;;;4.47;;
18140;SDS011;9196;49.194;12.526;2022-07-17T05:34:30;5.57;;;4.07;;
18140;SDS011;9196;49.194;12.526;2022-07-17T05:36:57;5.93;;;3.30;;
18140;SDS011;9196;49.194;12.526;2022-07-17T05:39:25;4.77;;;3.73;;
18140;SDS011;9196;49.194;12.526;2022-07-17T05:41:51;7.73;;;3.17;;
18140;SDS011;9196;49.194;12.526;2022-07-17T05:44:18;6.60;;;3.00;;
18140;SDS011;9196;49.194;12.526;2022-07-17T05:46:46;4.70;;;3.57;;
18140;SDS011;9196;49.194;12.526;2022-07-17T05:49:12;4.27;;;3.23;;
18140;SDS011;9196;49.194;12.526;2022-07-17T05:51:39;6.43;;;2.97;;
18140;SDS011;9196;49.194;12.526;2022-07-17T05:54:06;6.90;;;3.57;;
18140;SDS011;9196;49.194;12.526;2022-07-17T05:56:34;3.20;;;3.10;;
18140;SDS011;9196;49.194;12.526;2022-07-17T05:59:00;3.77;;;3.47;;
18140;SDS011;9196;49.194;12.526;2022-07-17T06:01:27;3.90;;;3.10;;
18140;SDS011;9196;49.194;12.526;2022-07-17T06:03:54;2.90;;;2.70;;
18140;SDS011;9196;49.194;12.526;2022-07-17T06:06:21;3.80;;;2.33;;
18140;SDS011;9196;49.194;12.526;2022-07-17T06:08:47;3.43;;;2.73;;
18140;SDS011;9196;49.194;12.526;2022-07-17T06:11:14;2.40;;;2.27;;
18140;SDS011;9196;49.194;12.526;2022-07-17T06:13:43;2.40;;;2.20;;
18140;SDS011;9196;49.194;12.526;2022-07-17T06:16:09;3.07;;;2.80;;
18140;SDS011;9196;49.194;12.526;2022-07-17T06:18:36;2.63;;;2.43;;
18140;SDS011;9196;49.194;12.526;2022-07-17T06:21:03;2.93;;;2.60;;
18140;SDS011;9196;49.194;12.526;2022-07-17T06:23:30;3.80;;;2.43;;
18140;SDS011;9196;49.194;12.526;2022-07-17T06:25:56;7.00;;;2.70;;
18140;SDS011;9196;49.194;12.526;2022-07-17T06:28:23;2.53;;;2.33;;
18140;SDS011;9196;49.194;12.526;2022-07-17T06:30:51;4.27;;;2.07;;
18140;SDS011;9196;49.194;12.526;2022-07-17T06:33:18;3.40;;;1.60;;
18140;SDS011;9196;49.194;12.526;2022-07-17T06:35:45;2.23;;;2.00;;
18140;SDS011;9196;49.194;12.526;2022-07-17T06:38:11;4.27;;;1.30;;
18140;SDS011;9196;49.194;12.526;2022-07-17T06:40:38;4.40;;;1.87;;
18140;SDS011;9196;49.194;12.526;2022-07-17T06:43:05;2.03;;;1.90;;
18140;SDS011;9196;49.194;12.526;2022-07-17T06:45:32;1.63;;;1.53;;
18140;SDS011;9196;49.194;12.526;2022-07-17T06:48:00;1.73;;;1.60;;
18140;SDS011;9196;49.194;12.526;2022-07-17T06:50:27;5.10;;;1.93;;
18140;SDS011;9196;49.194;12.526;2022-07-17T06:52:54;1.73;;;1.57;;
18140;SDS011;9196;49.194;12.526;2022-07-17T06:55:23;15.33;;;2.43;;
18140;SDS011;9196;49.194;12.526;2022-07-17T06:57:49;2.50;;;1.70;;
18140;SDS011;9196;49.194;12.526;2022-07-17T07:00:16;3.70;;;2.50;;
18140;SDS011;9196;49.194;12.526;2022-07-17T07:02:44;3.47;;;1.90;;
18140;SDS011;9196;49.194;12.526;2022-07-17T07:05:12;2.40;;;1.50;;
18140;SDS011;9196;49.194;12.526;2022-07-17T07:07:39;3.60;;;1.60;;
18140;SDS011;9196;49.194;12.526;2022-07-17T07:10:06;1.93;;;1.73;;
18140;SDS011;9196;49.194;12.526;2022-07-17T07:12:33;3.03;;;1.60;;
18140;SDS011;9196;49.194;12.526;2022-07-17T07:15:00;2.73;;;1.90;;
18140;SDS011;9196;49.194;12.526;2022-07-17T07:17:27;3.17;;;1.50;;
18140;SDS011;9196;49.194;12.526;2022-07-17T07:19:54;3.00;;;1.30;;
18140;SDS011;9196;49.194;12.526;2022-07-17T07:22:22;1.50;;;1.27;;
18140;SDS011;9196;49.194;12.526;2022-07-17T07:24:48;4.10;;;1.40;;
18140;SDS011;9196;49.194;12.526;2022-07-17T07:27:15;1.40;;;1.30;;
18140;SDS011;9196;49.194;12.526;2022-07-17T07:29:42;3.53;;;2.23;;
18140;SDS011;9196;49.194;12.526;2022-07-17T07:32:09;1.70;;;1.60;;
18140;SDS011;9196;49.194;12.526;2022-07-17T07:34:36;2.13;;;2.00;;
18140;SDS011;9196;49.194;12.526;2022-07-17T07:37:02;4.33;;;2.00;;
18140;SDS011;9196;49.194;12.526;2022-07-17T07:39:30;2.60;;;1.57;;
18140;SDS011;9196;49.194;12.526;2022-07-17T07:41:57;1.93;;;1.83;;
18140;SDS011;9196;49.194;12.526;2022-07-17T07:44:25;4.53;;;2.43;;
18140;SDS011;9196;49.194;12.526;2022-07-17T07:46:51;3.33;;;1.67;;
18140;SDS011;9196;49.194;12.526;2022-07-17T07:49:18;1.60;;;1.50;;
18140;SDS011;9196;49.194;12.526;2022-07-17T07:51:45;2.43;;;2.23;;
18140;SDS011;9196;49.194;12.526;2022-07-17T07:54:12;7.13;;;1.80;;
18140;SDS011;9196;49.194;12.526;2022-07-17T07:56:40;2.70;;;1.77;;
18140;SDS011;9196;49.194;12.526;2022-07-17T07:59:06;1.67;;;1.53;;
18140;SDS011;9196;49.194;12.526;2022-07-17T08:01:33;1.50;;;1.40;;
18140;SDS011;9196;49.194;12.526;2022-07-17T08:04:00;2.90;;;1.93;;
18140;SDS011;9196;49.194;12.526;2022-07-17T08:06:27;1.60;;;1.50;;
18140;SDS011;9196;49.194;12.526;2022-07-17T08:08:53;2.57;;;1.40;;
18140;SDS011;9196;49.194;12.526;2022-07-17T08:11:20;2.33;;;2.13;;
18140;SDS011;9196;49.194;12.526;2022-07-17T08:13:48;5.40;;;1.73;;
18140;SDS011;9196;49.194;12.526;2022-07-17T08:16:15;2.67;;;1.67;;
18140;SDS011;9196;49.194;12.526;2022-07-17T08:18:42;3.50;;;1.90;;
18140;SDS011;9196;49.194;12.526;2022-07-17T08:21:09;2.20;;;1.77;;
18140;SDS011;9196;49.194;12.526;2022-07-17T08:23:35;1.60;;;1.50;;
18140;SDS011;9196;49.194;12.526;2022-07-17T08:26:02;2.37;;;1.70;;
18140;SDS011;9196;49.194;12.526;2022-07-17T08:28:30;2.63;;;1.57;;
18140;SDS011;9196;49.194;12.526;2022-07-17T08:30:58;1.87;;;1.60;;
18140;SDS011;9196;49.194;12.526;2022-07-17T08:33:25;2.10;;;1.87;;
18140;SDS011;9196;49.194;12.526;2022-07-17T08:35:51;2.53;;;1.80;;
18140;SDS011;9196;49.194;12.526;2022-07-17T08:38:18;13.80;;;2.10;;
18140;SDS011;9196;49.194;12.526;2022-07-17T08:40:45;2.50;;;1.70;;
18140;SDS011;9196;49.194;12.526;2022-07-17T08:43:14;1.97;;;1.63;;
18140;SDS011;9196;49.194;12.526;2022-07-17T08:45:41;1.63;;;1.30;;
18140;SDS011;9196;49.194;12.526;2022-07-17T08:48:11;1.50;;;1.40;;
18140;SDS011;9196;49.194;12.526;2022-07-17T08:50:39;10.37;;;1.93;;
18140;SDS011;9196;49.194;12.526;2022-07-17T08:53:06;3.20;;;1.30;;
18140;SDS011;9196;49.194;12.526;2022-07-17T08:55:33;3.10;;;1.83;;
18140;SDS011;9196;49.194;12.526;2022-07-17T08:58:00;1.70;;;1.60;;
18140;SDS011;9196;49.194;12.526;2022-07-17T09:00:29;6.10;;;1.50;;
18140;SDS011;9196;49.194;12.526;2022-07-17T09:02:56;1.80;;;1.70;;
18140;SDS011;9196;49.194;12.526;2022-07-17T09:05:26;1.50;;;1.40;;
18140;SDS011;9196;49.194;12.526;2022-07-17T09:07:54;3.10;;;1.50;;
18140;SDS011;9196;49.194;12.526;2022-07-17T09:10:34;1.17;;;1.17;;
18140;SDS011;9196;49.194;12.526;2022-07-17T09:13:12;1.70;;;1.60;;
18140;SDS011;9196;49.194;12.526;2022-07-17T09:15:40;1.90;;;1.50;;
18140;SDS011;9196;49.194;12.526;2022-07-17T09:18:07;1.50;;;1.37;;
18140;SDS011;9196;49.194;12.526;2022-07-17T09:20:35;1.50;;;1.40;;
18140;SDS011;9196;49.194;12.526;2022-07-17T09:23:09;3.43;;;1.83;;
18140;SDS011;9196;49.194;12.526;2022-07-17T09:25:36;2.83;;;1.37;;
18140;SDS011;9196;49.194;12.526;2022-07-17T09:28:05;3.43;;;1.67;;
18140;SDS011;9196;49.194;12.526;2022-07-17T09:30:34;5.80;;;1.30;;
18140;SDS011;9196;49.194;12.526;2022-07-17T09:33:02;1.20;;;1.20;;
18140;SDS011;9196;49.194;12.526;2022-07-17T09:35:32;5.77;;;1.40;;
18140;SDS011;9196;49.194;12.526;2022-07-17T09:38:00;1.67;;;1.50;;
18140;SDS011;9196;49.194;12.526;2022-07-17T09:40:27;5.00;;;1.57;;
18140;SDS011;9196;49.194;12.526;2022-07-17T09:43:11;2.80;;;1.60;;
18140;SDS011;9196;49.194;12.526;2022-07-17T09:45:38;1.53;;;1.43;;
18140;SDS011;9196;49.194;12.526;2022-07-17T09:48:05;2.87;;;2.30;;
18140;SDS011;9196;49.194;12.526;2022-07-17T09:50:34;4.00;;;1.70;;
18140;SDS011;9196;49.194;12.526;2022-07-17T09:53:03;2.80;;;2.60;;
18140;SDS011;9196;49.194;12.526;2022-07-17T09:55:33;1.33;;;1.33;;
18140;SDS011;9196;49.194;12.526;2022-07-17T09:58:00;2.30;;;1.97;;
18140;SDS011;9196;49.194;12.526;2022-07-17T10:00:28;1.30;;;1.20;;
18140;SDS011;9196;49.194;12.526;2022-07-17T10:02:56;2.20;;;1.60;;
18140;SDS011;9196;49.194;12.526;2022-07-17T10:05:23;1.80;;;1.40;;
18140;SDS011;9196;49.194;12.526;2022-07-17T10:07:51;1.67;;;1.57;;
18140;SDS011;9196;49.194;12.526;2022-07-17T10:10:19;3.40;;;1.80;;
18140;SDS011;9196;49.194;12.526;2022-07-17T10:12:46;3.13;;;1.60;;
18140;SDS011;9196;49.194;12.526;2022-07-17T10:15:15;1.77;;;1.40;;
18140;SDS011;9196;49.194;12.526;2022-07-17T10:17:45;6.43;;;1.30;;
18140;SDS011;9196;49.194;12.526;2022-07-17T10:20:11;1.80;;;1.40;;
18140;SDS011;9196;49.194;12.526;2022-07-17T10:22:42;6.80;;;1.70;;
18140;SDS011;9196;49.194;12.526;2022-07-17T10:25:12;1.73;;;1.13;;
18140;SDS011;9196;49.194;12.526;2022-07-17T10:27:47;1.70;;;1.60;;
18140;SDS011;9196;49.194;12.526;2022-07-17T10:30:19;1.83;;;1.40;;
18140;SDS011;9196;49.194;12.526;2022-07-17T10:32:50;1.63;;;1.53;;
18140;SDS011;9196;49.194;12.526;2022-07-17T10:35:18;3.77;;;1.40;;
18140;SDS011;9196;49.194;12.526;2022-07-17T10:37:45;1.60;;;1.37;;
18140;SDS011;9196;49.194;12.526;2022-07-17T10:40:15;1.87;;;1.60;;
18140;SDS011;9196;49.194;12.526;2022-07-17T10:45:30;1.53;;;1.30;;
18140;SDS011;9196;49.194;12.526;2022-07-17T10:48:01;1.27;;;1.17;;
18140;SDS011;9196;49.194;12.526;2022-07-17T10:50:31;1.53;;;1.17;;
18140;SDS011;9196;49.194;12.526;2022-07-17T10:53:07;1.13;;;1.13;;
18140;SDS011;9196;49.194;12.526;2022-07-17T10:55:36;1.87;;;1.70;;
18140;SDS011;9196;49.194;12.526;2022-07-17T10:58:14;1.67;;;1.33;;
18140;SDS011;9196;49.194;12.526;2022-07-17T11:00:56;9.83;;;1.47;;
18140;SDS011;9196;49.194;12.526;2022-07-17T11:03:24;1.60;;;1.30;;
18140;SDS011;9196;49.194;12.526;2022-07-17T11:05:51;2.40;;;1.63;;
18140;SDS011;9196;49.194;12.526;2022-07-17T11:08:18;1.40;;;1.30;;
18140;SDS011;9196;49.194;12.526;2022-07-17T11:10:45;3.03;;;1.90;;
18140;SDS011;9196;49.194;12.526;2022-07-17T11:13:14;1.63;;;1.50;;
18140;SDS011;9196;49.194;12.526;2022-07-17T11:15:42;3.00;;;1.77;;
18140;SDS011;9196;49.194;12.526;2022-07-17T11:18:14;2.20;;;1.43;;
18140;SDS011;9196;49.194;12.526;2022-07-17T11:20:51;2.60;;;1.23;;
18140;SDS011;9196;49.194;12.526;2022-07-17T11:23:20;1.80;;;1.70;;
18140;SDS011;9196;49.194;12.526;2022-07-17T11:25:51;1.00;;;1.00;;
18140;SDS011;9196;49.194;12.526;2022-07-17T11:28:33;1.90;;;1.10;;
18140;SDS011;9196;49.194;12.526;2022-07-17T11:31:02;1.53;;;1.43;;
18140;SDS011;9196;49.194;12.526;2022-07-17T11:33:31;1.30;;;1.10;;
18140;SDS011;9196;49.194;12.526;2022-07-17T11:35:58;1.30;;;1.10;;
18140;SDS011;9196;49.194;12.526;2022-07-17T11:38:26;1.13;;;1.13;;
18140;SDS011;9196;49.194;12.526;2022-07-17T11:40:54;4.00;;;1.40;;
18140;SDS011;9196;49.194;12.526;2022-07-17T11:43:21;3.97;;;1.37;;
18140;SDS011;9196;49.194;12.526;2022-07-17T11:45:49;1.20;;;1.20;;
18140;SDS011;9196;49.194;12.526;2022-07-17T11:48:16;2.30;;;1.10;;
18140;SDS011;9196;49.194;12.526;2022-07-17T11:50:52;1.23;;;1.13;;
18140;SDS011;9196;49.194;12.526;2022-07-17T11:53:29;1.37;;;1.27;;
18140;SDS011;9196;49.194;12.526;2022-07-17T11:55:57;1.20;;;1.20;;
18140;SDS011;9196;49.194;12.526;2022-07-17T11:58:24;1.40;;;1.13;;
18140;SDS011;9196;49.194;12.526;2022-07-17T12:01:00;1.60;;;1.50;;
18140;SDS011;9196;49.194;12.526;2022-07-17T12:03:28;1.30;;;1.20;;
18140;SDS011;9196;49.194;12.526;2022-07-17T12:05:55;1.37;;;1.23;;
18140;SDS011;9196;49.194;12.526;2022-07-17T12:08:22;0.90;;;0.90;;
18140;SDS011;9196;49.194;12.526;2022-07-17T12:10:58;1.40;;;1.30;;
18140;SDS011;9196;49.194;12.526;2022-07-17T12:13:32;1.30;;;1.30;;
18140;SDS011;9196;49.194;12.526;2022-07-17T12:16:18;1.67;;;1.57;;
18140;SDS011;9196;49.194;12.526;2022-07-17T12:18:54;1.63;;;1.20;;
18140;SDS011;9196;49.194;12.526;2022-07-17T12:21:22;1.43;;;1.33;;
18140;SDS011;9196;49.194;12.526;2022-07-17T12:23:55;2.40;;;1.10;;
18140;SDS011;9196;49.194;12.526;2022-07-17T12:26:23;1.20;;;1.10;;
18140;SDS011;9196;49.194;12.526;2022-07-17T12:28:50;0.97;;;0.97;;
18140;SDS011;9196;49.194;12.526;2022-07-17T12:31:18;3.93;;;1.33;;
18140;SDS011;9196;49.194;12.526;2022-07-17T12:33:45;3.23;;;1.67;;
18140;SDS011;9196;49.194;12.526;2022-07-17T12:36:14;1.30;;;1.20;;
18140;SDS011;9196;49.194;12.526;2022-07-17T12:38:40;0.93;;;0.93;;
18140;SDS011;9196;49.194;12.526;2022-07-17T12:41:07;1.17;;;1.10;;
18140;SDS011;9196;49.194;12.526;2022-07-17T12:43:34;1.53;;;1.10;;
18140;SDS011;9196;49.194;12.526;2022-07-17T12:46:01;4.23;;;1.00;;
18140;SDS011;9196;49.194;12.526;2022-07-17T12:48:29;5.50;;;1.20;;
18140;SDS011;9196;49.194;12.526;2022-07-17T12:50:56;1.40;;;1.20;;
18140;SDS011;9196;49.194;12.526;2022-07-17T12:53:23;1.43;;;1.00;;
18140;SDS011;9196;49.194;12.526;2022-07-17T12:55:50;1.50;;;1.40;;
18140;SDS011;9196;49.194;12.526;2022-07-17T12:58:17;1.20;;;1.20;;
18140;SDS011;9196;49.194;12.526;2022-07-17T13:00:43;1.00;;;1.00;;
18140;SDS011;9196;49.194;12.526;2022-07-17T13:03:10;0.80;;;0.80;;
18140;SDS011;9196;49.194;12.526;2022-07-17T13:05:38;1.40;;;1.30;;
18140;SDS011;9196;49.194;12.526;2022-07-17T13:08:05;1.93;;;1.20;;
18140;SDS011;9196;49.194;12.526;2022-07-17T13:10:33;1.10;;;1.10;;
18140;SDS011;9196;49.194;12.526;2022-07-17T13:13:00;0.90;;;0.90;;
18140;SDS011;9196;49.194;12.526;2022-07-17T13:15:29;1.87;;;1.27;;
18140;SDS011;9196;49.194;12.526;2022-07-17T13:17:56;1.33;;;1.30;;
18140;SDS011;9196;49.194;12.526;2022-07-17T13:20:23;6.80;;;1.77;;
18140;SDS011;9196;49.194;12.526;2022-07-17T13:22:51;2.70;;;1.07;;
18140;SDS011;9196;49.194;12.526;2022-07-17T13:25:18;3.07;;;1.20;;
18140;SDS011;9196;49.194;12.526;2022-07-17T13:27:45;1.13;;;1.10;;
18140;SDS011;9196;49.194;12.526;2022-07-17T13:30:11;1.43;;;1.10;;
18140;SDS011;9196;49.194;12.526;2022-07-17T13:32:38;1.20;;;1.10;;
18140;SDS011;9196;49.194;12.526;2022-07-17T13:35:06;2.13;;;1.00;;
18140;SDS011;9196;49.194;12.526;2022-07-17T13:37:34;1.03;;;0.93;;
18140;SDS011;9196;49.194;12.526;2022-07-17T13:40:03;1.33;;;1.20;;
18140;SDS011;9196;49.194;12.526;2022-07-17T13:42:31;1.50;;;1.20;;
18140;SDS011;9196;49.194;12.526;2022-07-17T13:44:58;1.40;;;1.30;;
18140;SDS011;9196;49.194;12.526;2022-07-17T13:47:25;1.23;;;1.13;;
18140;SDS011;9196;49.194;12.526;2022-07-17T13:49:52;1.13;;;1.10;;
18140;SDS011;9196;49.194;12.526;2022-07-17T13:52:18;1.10;;;0.90;;
18140;SDS011;9196;49.194;12.526;2022-07-17T13:54:45;3.03;;;1.43;;
18140;SDS011;9196;49.194;12.526;2022-07-17T13:57:13;1.33;;;0.93;;
18140;SDS011;9196;49.194;12.526;2022-07-17T13:59:40;1.30;;;1.20;;
18140;SDS011;9196;49.194;12.526;2022-07-17T14:02:07;1.43;;;0.80;;
18140;SDS011;9196;49.194;12.526;2022-07-17T14:04:34;0.97;;;0.97;;
18140;SDS011;9196;49.194;12.526;2022-07-17T14:07:01;2.10;;;1.20;;
18140;SDS011;9196;49.194;12.526;2022-07-17T14:09:28;1.30;;;1.23;;
18140;SDS011;9196;49.194;12.526;2022-07-17T14:11:54;3.90;;;1.13;;
18140;SDS011;9196;49.194;12.526;2022-07-17T14:14:23;0.90;;;0.90;;
18140;SDS011;9196;49.194;12.526;2022-07-17T14:16:49;2.83;;;1.33;;
18140;SDS011;9196;49.194;12.526;2022-07-17T14:19:16;2.30;;;1.13;;
18140;SDS011;9196;49.194;12.526;2022-07-17T14:21:43;2.10;;;1.40;;
18140;SDS011;9196;49.194;12.526;2022-07-17T14:24:10;1.53;;;1.13;;
18140;SDS011;9196;49.194;12.526;2022-07-17T14:26:37;3.27;;;1.63;;
18140;SDS011;9196;49.194;12.526;2022-07-17T14:29:07;1.10;;;1.10;;
18140;SDS011;9196;49.194;12.526;2022-07-17T14:31:35;0.80;;;0.80;;
18140;SDS011;9196;49.194;12.526;2022-07-17T14:34:02;1.37;;;1.30;;
18140;SDS011;9196;49.194;12.526;2022-07-17T14:36:29;0.90;;;0.90;;
18140;SDS011;9196;49.194;12.526;2022-07-17T14:38:56;2.20;;;1.20;;
18140;SDS011;9196;49.194;12.526;2022-07-17T14:41:22;1.77;;;1.27;;
18140;SDS011;9196;49.194;12.526;2022-07-17T14:43:51;1.00;;;1.00;;
18140;SDS011;9196;49.194;12.526;2022-07-17T14:46:18;3.53;;;1.20;;
18140;SDS011;9196;49.194;12.526;2022-07-17T14:48:46;1.47;;;1.23;;
18140;SDS011;9196;49.194;12.526;2022-07-17T14:51:13;2.07;;;1.23;;
18140;SDS011;9196;49.194;12.526;2022-07-17T14:53:40;1.80;;;1.23;;